Time;durP1;ratioP1;P1;durP2;ratioP2;P2;SDS_P1;SDS_P2;PMS_P1;PMS_P2;Temp;Humidity;BMP_temperature;BMP_pressure;BME280_temperature;BME280_humidity;BME280_pressure;Samples;Min_cycle;Max_cycle;Signal;HPM_P1;HPM_P2
2022/08/30 00:03:00;;;;;;;6.50;4.70;;;;;;;22.31;53.69;97660.84;5053609;28;20183;-71
2022/08/30 00:05:27;;;;;;;11.50;5.53;;;;;;;22.23;53.98;97657.41;5050658;28;20444;-70
2022/08/30 00:07:53;;;;;;;5.97;5.20;;;;;;;22.21;54.18;97656.81;5052440;28;20637;-70
2022/08/30 00:10:19;;;;;;;7.20;5.60;;;;;;;22.20;53.95;97663.19;5053134;28;20428;-71
2022/08/30 00:12:44;;;;;;;7.60;5.23;;;;;;;22.14;54.10;97664.06;5051841;28;20222;-70
2022/08/30 00:15:12;;;;;;;7.10;5.83;;;;;;;22.14;54.36;97672.06;5053035;28;20214;-71
2022/08/30 00:17:38;;;;;;;12.40;4.93;;;;;;;22.08;54.41;97662.22;5052393;28;20198;-70
2022/08/30 00:20:06;;;;;;;8.53;5.10;;;;;;;22.07;54.49;97673.94;5052981;28;20920;-70
2022/08/30 00:22:31;;;;;;;9.30;5.40;;;;;;;22.06;54.15;97674.97;5052990;28;20420;-69
2022/08/30 00:24:59;;;;;;;6.47;4.93;;;;;;;22.00;54.57;97671.31;5053333;28;20425;-70
2022/08/30 00:27:26;;;;;;;6.97;4.80;;;;;;;21.96;54.45;97674.63;5051929;28;20290;-71
2022/08/30 00:29:51;;;;;;;8.10;5.20;;;;;;;22.01;54.19;97677.47;5053222;28;20771;-70
2022/08/30 00:32:20;;;;;;;6.67;4.90;;;;;;;22.01;54.42;97677.47;5052876;28;20475;-70
2022/08/30 00:34:47;;;;;;;11.93;4.83;;;;;;;21.98;54.40;97678.75;5052823;28;20191;-69
2022/08/30 00:37:12;;;;;;;9.53;5.20;;;;;;;21.83;54.82;97679.00;5051597;28;20879;-69
2022/08/30 00:39:38;;;;;;;5.43;4.90;;;;;;;21.85;54.73;97682.28;5052942;28;20445;-70
2022/08/30 00:42:03;;;;;;;6.07;5.03;;;;;;;21.90;54.47;97681.63;5048982;28;20257;-70
2022/08/30 00:44:29;;;;;;;7.57;5.20;;;;;;;21.82;54.92;97676.56;5045999;28;20175;-69
2022/08/30 00:46:54;;;;;;;8.03;5.27;;;;;;;21.73;55.13;97679.47;5056541;28;20270;-70
2022/08/30 00:49:20;;;;;;;5.40;4.83;;;;;;;21.71;55.40;97678.88;5052472;28;20243;-71
2022/08/30 00:51:45;;;;;;;7.73;5.57;;;;;;;21.68;55.41;97678.47;5051098;28;20171;-68
2022/08/30 00:54:11;;;;;;;7.00;5.33;;;;;;;21.63;55.21;97671.94;5051237;28;20666;-69
2022/08/30 00:56:36;;;;;;;9.33;5.33;;;;;;;21.63;55.18;97671.94;5050421;28;20643;-71
2022/08/30 00:59:04;;;;;;;6.13;5.37;;;;;;;21.58;55.46;97674.38;5052412;28;20206;-70
2022/08/30 01:01:31;;;;;;;8.80;5.60;;;;;;;21.57;55.74;97671.94;5044089;28;20195;-71
2022/08/30 01:03:57;;;;;;;5.47;4.70;;;;;;;21.54;55.47;97677.69;5051040;28;20410;-71
2022/08/30 01:06:24;;;;;;;9.97;5.17;;;;;;;21.56;55.26;97676.44;5052442;28;20460;-72
2022/08/30 01:08:50;;;;;;;6.77;5.13;;;;;;;21.56;55.39;97687.09;5053021;28;20438;-71
2022/08/30 01:11:18;;;;;;;5.57;5.07;;;;;;;21.58;55.34;97679.72;5051301;28;20784;-71
2022/08/30 01:13:46;;;;;;;6.70;5.27;;;;;;;21.55;55.39;97674.78;5050449;28;20265;-71
2022/08/30 01:16:12;;;;;;;8.00;5.30;;;;;;;21.49;55.21;97668.44;5051632;28;20422;-72
2022/08/30 01:18:38;;;;;;;10.83;4.67;;;;;;;21.47;55.44;97667.03;5058050;28;20469;-71
2022/08/30 01:21:06;;;;;;;6.40;4.47;;;;;;;21.48;55.08;97669.47;5059827;28;20609;-72
2022/08/30 01:23:33;;;;;;;5.70;5.10;;;;;;;21.46;55.09;97676.06;5043686;28;20422;-71
2022/08/30 01:25:59;;;;;;;8.87;5.37;;;;;;;21.42;55.66;97674.88;5050657;28;20421;-70
2022/08/30 01:28:27;;;;;;;5.97;5.00;;;;;;;21.31;55.85;97677.13;5049543;28;20441;-70
2022/08/30 01:30:52;;;;;;;7.40;5.40;;;;;;;21.22;55.83;97669.59;5050524;28;20175;-72
2022/08/30 01:33:18;;;;;;;7.07;5.27;;;;;;;21.16;55.98;97679.25;5051216;28;20793;-72
2022/08/30 01:35:52;;;;;;;7.50;5.10;;;;;;;21.10;56.01;97672.06;5051733;28;20199;-70
2022/08/30 01:38:20;;;;;;;12.23;5.47;;;;;;;21.08;56.38;97674.13;5050612;28;20464;-71
2022/08/30 01:40:46;;;;;;;7.80;5.13;;;;;;;21.06;56.40;97674.34;5050521;28;20760;-69
2022/08/30 01:43:13;;;;;;;6.93;5.30;;;;;;;21.10;56.43;97672.06;5050720;28;20425;-70
2022/08/30 01:45:38;;;;;;;9.20;5.10;;;;;;;21.06;56.58;97676.19;5056682;28;20651;-72
2022/08/30 01:48:03;;;;;;;8.33;5.13;;;;;;;21.05;56.42;97674.53;5050368;28;20779;-70
2022/08/30 01:50:29;;;;;;;5.77;5.23;;;;;;;20.96;56.66;97677.44;5043311;28;20262;-70
2022/08/30 01:52:55;;;;;;;8.40;5.20;;;;;;;20.91;56.90;97674.59;5051519;28;20179;-70
2022/08/30 01:55:20;;;;;;;7.40;6.03;;;;;;;20.91;56.90;97679.06;5051355;28;20182;-71
2022/08/30 01:57:46;;;;;;;8.93;5.30;;;;;;;20.94;56.88;97682.13;5050430;28;20201;-72
2022/08/30 02:00:12;;;;;;;6.40;5.40;;;;;;;20.91;56.46;97674.59;5051021;28;20193;-72
2022/08/30 02:02:37;;;;;;;6.90;5.80;;;;;;;20.89;56.49;97676.63;5051083;28;20232;-69
2022/08/30 02:05:03;;;;;;;6.20;5.50;;;;;;;20.85;56.77;97686.88;5051390;28;20280;-71
2022/08/30 02:07:29;;;;;;;6.00;5.20;;;;;;;20.84;57.17;97681.75;5058764;28;20729;-71
2022/08/30 02:09:55;;;;;;;6.13;5.53;;;;;;;20.85;56.91;97680.72;5051306;28;20433;-71
2022/08/30 02:12:20;;;;;;;6.83;5.50;;;;;;;20.85;57.00;97676.22;5050360;28;20179;-72
2022/08/30 02:14:46;;;;;;;10.03;5.40;;;;;;;20.76;57.56;97677.44;5051213;28;20448;-71
2022/08/30 02:17:13;;;;;;;9.23;5.80;;;;;;;20.71;57.46;97670.06;5058565;28;20215;-71
2022/08/30 02:19:39;;;;;;;7.03;5.50;;;;;;;20.66;57.56;97677.84;5051314;28;20171;-71
2022/08/30 02:22:05;;;;;;;6.83;5.37;;;;;;;20.69;57.60;97673.97;5067348;28;20886;-71
2022/08/30 02:24:30;;;;;;;8.53;5.13;;;;;;;20.66;57.34;97677.84;5051026;28;20439;-69
2022/08/30 02:26:56;;;;;;;9.83;5.23;;;;;;;20.63;57.58;97678.25;5050146;28;20512;-72
2022/08/30 02:29:22;;;;;;;6.13;5.33;;;;;;;20.56;57.75;97675.59;5049504;28;20221;-71
2022/08/30 02:31:48;;;;;;;8.70;5.20;;;;;;;20.60;57.87;97668.00;5050779;28;20183;-71
2022/08/30 02:34:16;;;;;;;9.37;6.30;;;;;;;20.64;57.51;97663.09;5047816;28;20520;-71
2022/08/30 02:36:42;;;;;;;5.73;5.17;;;;;;;20.63;57.78;97662.28;5051851;28;20673;-70
2022/08/30 02:39:09;;;;;;;7.13;5.80;;;;;;;20.57;57.89;97663.09;5054810;28;20445;-70
2022/08/30 02:41:34;;;;;;;5.27;4.77;;;;;;;20.60;57.66;97661.88;5053535;28;20453;-71
2022/08/30 02:44:00;;;;;;;8.33;4.90;;;;;;;20.62;57.94;97655.31;5054208;28;20458;-69
2022/08/30 02:46:26;;;;;;;7.00;5.70;;;;;;;20.62;57.71;97655.31;5060400;28;20252;-72
2022/08/30 02:48:52;;;;;;;10.43;5.77;;;;;;;20.56;57.68;97656.97;5054868;28;20281;-71
2022/08/30 02:51:17;;;;;;;5.50;5.00;;;;;;;20.54;57.73;97658.19;5054762;28;20842;-71
2022/08/30 02:53:43;;;;;;;6.90;5.43;;;;;;;20.51;57.83;97659.41;5054659;28;20179;-71
2022/08/30 02:56:10;;;;;;;6.60;5.53;;;;;;;20.51;57.91;97647.97;5054533;28;20179;-70
2022/08/30 02:58:36;;;;;;;6.30;5.70;;;;;;;20.46;57.70;97655.72;5053853;28;20500;-70
2022/08/30 03:01:03;;;;;;;7.47;5.33;;;;;;;20.39;57.80;97651.25;5057588;28;20944;-71
2022/08/30 03:03:29;;;;;;;7.63;5.40;;;;;;;20.40;57.87;97652.03;5046469;28;20261;-69
2022/08/30 03:05:54;;;;;;;6.40;5.80;;;;;;;20.32;58.29;97649.59;5054745;28;20959;-71
2022/08/30 03:08:20;;;;;;;6.00;5.50;;;;;;;20.29;58.45;97653.47;5053446;28;20229;-70
2022/08/30 03:10:46;;;;;;;6.73;5.70;;;;;;;20.30;58.52;97649.78;5054701;28;20187;-70
2022/08/30 03:13:11;;;;;;;6.80;6.10;;;;;;;20.33;58.34;97644.06;5053807;28;20465;-70
2022/08/30 03:15:38;;;;;;;7.70;5.67;;;;;;;20.33;58.50;97643.25;5062659;28;20266;-70
2022/08/30 03:18:05;;;;;;;6.47;5.60;;;;;;;20.29;58.56;97645.47;5053716;28;20207;-71
2022/08/30 03:20:30;;;;;;;6.10;5.50;;;;;;;20.29;58.56;97636.69;5057868;28;20459;-70
2022/08/30 03:22:56;;;;;;;7.50;5.30;;;;;;;20.26;58.45;97637.94;5058952;28;20433;-70
2022/08/30 03:25:21;;;;;;;9.37;5.57;;;;;;;20.22;58.79;97636.69;5053981;28;20210;-71
2022/08/30 03:27:49;;;;;;;8.13;5.67;;;;;;;20.22;58.64;97634.03;5053378;28;20203;-70
2022/08/30 03:30:17;;;;;;;10.77;6.13;;;;;;;20.25;58.38;97641.59;5054017;28;20201;-70
2022/08/30 03:32:42;;;;;;;10.00;5.97;;;;;;;20.21;58.55;97643.03;5054089;28;20999;-70
2022/08/30 03:35:08;;;;;;;5.67;5.07;;;;;;;20.20;58.58;97641.38;5053881;28;20461;-71
2022/08/30 03:37:34;;;;;;;6.10;5.23;;;;;;;20.17;58.79;97639.97;5053146;28;20223;-69
2022/08/30 03:40:02;;;;;;;6.37;5.77;;;;;;;20.13;58.85;97640.56;5054627;28;20183;-70
2022/08/30 03:42:27;;;;;;;10.17;5.97;;;;;;;20.13;58.64;97635.25;5054039;28;20797;-70
2022/08/30 03:44:53;;;;;;;6.00;5.20;;;;;;;20.06;59.21;97629.91;5058504;28;20417;-71
2022/08/30 03:47:19;;;;;;;5.87;5.27;;;;;;;19.99;59.30;97634.41;5055390;28;20663;-71
2022/08/30 03:49:45;;;;;;;11.37;6.23;;;;;;;19.98;59.36;97636.25;5054356;28;20219;-72
2022/08/30 03:52:10;;;;;;;8.37;5.33;;;;;;;20.02;58.90;97640.16;5054708;28;20515;-70
2022/08/30 03:54:37;;;;;;;8.33;6.20;;;;;;;19.99;59.15;97634.41;5061088;28;20269;-70
2022/08/30 03:57:03;;;;;;;7.27;5.43;;;;;;;20.00;59.13;97642.19;5040556;28;20192;-71
2022/08/30 03:59:28;;;;;;;8.23;5.90;;;;;;;20.02;59.07;97640.16;5050206;28;20435;-70
2022/08/30 04:01:53;;;;;;;6.90;5.77;;;;;;;20.03;58.95;97636.47;5068273;28;20673;-71
2022/08/30 04:04:19;;;;;;;7.43;5.60;;;;;;;20.04;58.98;97635.44;5072927;28;20183;-70
2022/08/30 04:06:44;;;;;;;8.83;5.63;;;;;;;20.00;59.26;97636.03;5051983;28;20190;-70
2022/08/30 04:09:10;;;;;;;7.00;5.50;;;;;;;19.93;59.57;97633.38;5053433;28;20202;-70
2022/08/30 04:11:35;;;;;;;8.13;5.97;;;;;;;19.84;59.65;97634.56;5054012;28;20557;-69
2022/08/30 04:14:01;;;;;;;7.57;6.20;;;;;;;19.83;59.63;97638.22;5049989;28;20183;-71
2022/08/30 04:16:26;;;;;;;7.73;6.20;;;;;;;19.82;59.54;97633.94;5052566;28;20266;-72
2022/08/30 04:18:52;;;;;;;9.07;6.20;;;;;;;19.77;59.67;97642.50;5053703;28;20594;-70
2022/08/30 04:21:17;;;;;;;7.83;6.10;;;;;;;19.78;59.45;97642.31;5063600;28;20547;-70
2022/08/30 04:23:43;;;;;;;11.50;6.40;;;;;;;19.72;59.70;97648.44;5051224;28;20205;-71
2022/08/30 04:26:09;;;;;;;13.50;5.97;;;;;;;19.74;59.71;97648.22;5053819;28;20187;-70
2022/08/30 04:28:35;;;;;;;9.00;6.97;;;;;;;19.70;59.92;97647.00;5052843;28;20202;-71
2022/08/30 04:31:07;;;;;;;8.70;6.83;;;;;;;19.69;60.23;97651.47;5065737;28;20424;-70
2022/08/30 04:33:34;;;;;;;8.87;6.90;;;;;;;19.76;59.83;97652.34;5066227;28;20182;-71
2022/08/30 04:36:03;;;;;;;14.57;6.60;;;;;;;19.71;59.95;97653.97;5072871;28;20507;-71
2022/08/30 04:38:28;;;;;;;15.00;6.60;;;;;;;19.63;60.26;97647.78;5067230;28;20436;-71
2022/08/30 04:40:54;;;;;;;8.97;6.13;;;;;;;19.66;60.02;97657.19;5063802;28;20462;-72
2022/08/30 04:43:19;;;;;;;10.63;6.40;;;;;;;19.61;60.06;97652.47;5058254;28;20657;-71
2022/08/30 04:45:45;;;;;;;7.83;6.50;;;;;;;19.59;60.04;97654.53;5065823;28;20543;-70
2022/08/30 04:48:11;;;;;;;6.97;6.13;;;;;;;19.64;60.11;97661.91;5071183;28;20206;-71
2022/08/30 04:50:36;;;;;;;8.70;6.50;;;;;;;19.64;60.10;97660.06;5065679;28;20506;-72
2022/08/30 04:53:02;;;;;;;7.23;5.87;;;;;;;19.66;60.10;97662.50;5072359;28;20444;-70
2022/08/30 04:55:27;;;;;;;7.73;6.87;;;;;;;19.68;60.47;97671.13;5072038;28;20257;-70
2022/08/30 04:57:52;;;;;;;8.00;7.13;;;;;;;19.72;60.11;97661.72;5062762;28;20667;-70
2022/08/30 05:00:21;;;;;;;12.37;6.70;;;;;;;19.69;60.02;97678.06;5055299;28;20241;-71
2022/08/30 05:02:48;;;;;;;8.27;6.63;;;;;;;19.71;60.32;97680.56;5070921;28;20202;-70
2022/08/30 05:07:58;;;;;;;7.60;6.80;;;;;;;19.63;60.71;97690.31;5071339;28;20536;-71
2022/08/30 05:10:26;;;;;;;10.57;6.63;;;;;;;19.70;60.61;97687.69;5067511;28;20570;-69
2022/08/30 05:12:52;;;;;;;11.20;7.47;;;;;;;19.75;60.61;97692.41;5071956;28;20535;-70
2022/08/30 05:15:17;;;;;;;10.23;6.60;;;;;;;19.84;60.68;97690.41;5070257;28;20472;-69
2022/08/30 05:17:43;;;;;;;8.33;7.23;;;;;;;19.95;60.27;97695.16;5062924;28;20454;-70
2022/08/30 05:20:10;;;;;;;11.93;6.70;;;;;;;20.02;60.28;97700.50;5052714;28;20742;-71
2022/08/30 05:22:36;;;;;;;10.80;7.00;;;;;;;20.02;60.63;97706.66;5064380;28;20182;-70
2022/08/30 05:25:02;;;;;;;6.93;6.13;;;;;;;20.09;60.52;97696.84;5071445;28;20433;-70
2022/08/30 05:27:28;;;;;;;12.70;6.53;;;;;;;20.13;60.72;97693.78;5063928;28;20440;-70
2022/08/30 05:29:54;;;;;;;12.80;7.17;;;;;;;20.22;60.56;97689.91;5061891;28;20988;-70
2022/08/30 05:32:20;;;;;;;10.40;6.23;;;;;;;20.26;60.74;97691.16;5070907;28;20188;-70
2022/08/30 05:34:45;;;;;;;9.63;6.93;;;;;;;20.35;60.27;97691.78;5071460;28;20525;-71
2022/08/30 05:37:10;;;;;;;7.43;6.67;;;;;;;20.38;60.38;97686.84;5058243;28;20222;-70
2022/08/30 05:39:36;;;;;;;8.20;6.77;;;;;;;20.41;60.67;97681.09;5066952;28;20274;-70
2022/08/30 05:42:01;;;;;;;11.37;7.73;;;;;;;20.46;60.73;97682.34;5070063;28;20638;-70
2022/08/30 05:44:27;;;;;;;9.47;7.13;;;;;;;20.49;60.41;97687.28;5060407;28;20182;-70
2022/08/30 05:46:52;;;;;;;9.37;7.07;;;;;;;20.52;60.15;97681.53;5065475;28;20182;-70
2022/08/30 05:49:18;;;;;;;10.03;6.83;;;;;;;20.58;60.09;97690.56;5061148;28;20275;-70
2022/08/30 05:51:43;;;;;;;7.87;7.10;;;;;;;20.62;60.25;97673.97;5072082;28;20193;-70
2022/08/30 05:54:10;;;;;;;8.00;6.80;;;;;;;20.64;60.24;97673.75;5055492;28;20205;-72
2022/08/30 05:56:38;;;;;;;8.07;6.87;;;;;;;20.70;60.29;97670.28;5070375;28;20189;-71
2022/08/30 05:59:06;;;;;;;10.47;7.57;;;;;;;20.81;60.25;97679.50;5047527;28;20529;-71
2022/08/30 06:01:35;;;;;;;9.23;7.07;;;;;;;20.89;59.84;97681.97;5067787;28;20456;-72
2022/08/30 06:04:03;;;;;;;10.20;7.60;;;;;;;21.04;60.09;97684.38;5067289;28;20463;-71
2022/08/30 06:06:29;;;;;;;12.20;7.33;;;;;;;21.24;59.54;97689.66;5057854;28;20807;-71
2022/08/30 06:08:55;;;;;;;8.50;7.30;;;;;;;21.42;58.90;97685.53;5071332;28;20509;-71
2022/08/30 06:11:22;;;;;;;12.33;7.83;;;;;;;21.52;58.29;97685.91;5070111;28;20983;-71
2022/08/30 06:13:49;;;;;;;14.80;7.47;;;;;;;21.58;57.40;97693.03;5056820;28;20262;-71
2022/08/30 06:16:16;;;;;;;16.43;8.80;;;;;;;21.61;57.17;97695.31;5060400;28;20474;-72
2022/08/30 06:18:42;;;;;;;11.17;8.47;;;;;;;21.75;57.18;97695.25;5070807;28;20509;-71
2022/08/30 06:21:17;;;;;;;13.27;8.50;;;;;;;21.83;57.11;97696.88;5062991;28;20536;-69
2022/08/30 06:23:43;;;;;;;11.70;7.57;;;;;;;21.99;57.30;97707.03;5071296;28;20822;-70
2022/08/30 06:26:09;;;;;;;10.37;6.70;;;;;;;22.14;57.53;97697.91;5071805;28;20425;-70
2022/08/30 06:28:34;;;;;;;9.73;7.87;;;;;;;22.29;56.78;97694.97;5070176;28;20494;-71
2022/08/30 06:31:00;;;;;;;15.53;7.20;;;;;;;22.45;56.78;97694.44;5070952;28;20190;-70
2022/08/30 06:33:25;;;;;;;13.43;7.27;;;;;;;22.64;56.25;97694.53;5062285;28;20193;-71
2022/08/30 06:35:51;;;;;;;10.00;8.07;;;;;;;22.74;55.53;97692.16;5058836;28;20293;-71
2022/08/30 06:38:16;;;;;;;19.93;9.30;;;;;;;22.81;54.93;97682.22;5062025;28;20261;-70
2022/08/30 06:40:42;;;;;;;9.90;8.27;;;;;;;22.85;54.63;97693.31;5054835;28;20285;-70
2022/08/30 06:43:08;;;;;;;10.63;7.70;;;;;;;22.99;54.51;97683.31;5064949;28;20182;-70
2022/08/30 06:45:34;;;;;;;16.37;8.87;;;;;;;23.14;54.47;97689.13;5066103;28;20182;-71
2022/08/30 06:47:59;;;;;;;15.30;8.90;;;;;;;23.21;53.85;97686.41;5052922;28;20344;-70
2022/08/30 06:50:25;;;;;;;8.00;7.17;;;;;;;23.38;53.78;97689.31;5066967;28;20467;-70
2022/08/30 06:52:51;;;;;;;11.23;8.13;;;;;;;23.53;53.90;97682.75;5055458;28;20183;-70
2022/08/30 06:55:17;;;;;;;13.93;8.33;;;;;;;23.53;53.52;97682.75;5068937;28;20201;-71
2022/08/30 06:57:43;;;;;;;9.67;7.47;;;;;;;23.49;53.43;97682.41;5064563;28;20206;-71
2022/08/30 07:00:11;;;;;;;14.10;8.37;;;;;;;23.41;52.91;97672.00;5067894;28;20464;-70
2022/08/30 07:02:37;;;;;;;15.80;7.80;;;;;;;23.37;53.32;97676.97;5070872;28;20421;-70
2022/08/30 07:05:03;;;;;;;8.73;7.23;;;;;;;23.39;53.66;97682.09;5070525;28;20467;-71
2022/08/30 07:07:29;;;;;;;8.70;6.90;;;;;;;23.39;53.19;97684.75;5054049;28;20617;-71
2022/08/30 07:09:54;;;;;;;13.70;7.30;;;;;;;23.40;53.06;97694.41;5070625;28;20442;-71
2022/08/30 07:12:20;;;;;;;9.03;7.17;;;;;;;23.42;52.53;97693.19;5068034;28;20187;-71
2022/08/30 07:14:45;;;;;;;14.90;7.07;;;;;;;23.49;52.53;97694.94;5064609;28;20186;-72
2022/08/30 07:19:55;;;;;;;7.57;6.50;;;;;;;23.78;51.94;97688.00;5070496;28;20190;-70
2022/08/30 07:22:21;;;;;;;8.20;7.10;;;;;;;23.96;51.67;97681.81;5063221;28;20986;-71
2022/08/30 07:24:46;;;;;;;16.73;6.97;;;;;;;24.18;51.20;97689.34;5074059;28;20269;-71
2022/08/30 07:27:12;;;;;;;9.00;6.70;;;;;;;24.44;51.29;97695.34;5071760;28;20198;-72
2022/08/30 07:29:38;;;;;;;10.30;6.57;;;;;;;24.71;50.88;97694.94;5074179;28;20182;-70
2022/08/30 07:32:03;;;;;;;11.90;7.67;;;;;;;24.90;49.63;97688.41;5072839;28;20273;-70
2022/08/30 07:34:28;;;;;;;9.20;7.43;;;;;;;24.94;48.92;97703.00;5073588;28;20653;-70
2022/08/30 07:36:54;;;;;;;8.90;7.03;;;;;;;24.95;48.93;97699.25;5057391;28;20198;-70
2022/08/30 07:39:20;;;;;;;8.20;7.40;;;;;;;24.93;49.23;97696.00;5065457;28;20711;-71
2022/08/30 07:41:45;;;;;;;12.83;7.80;;;;;;;24.98;49.33;97704.16;5068609;28;20228;-71
2022/08/30 07:44:11;;;;;;;16.30;6.77;;;;;;;25.11;49.65;97696.91;5073921;28;20237;-71
2022/08/30 07:46:37;;;;;;;10.23;6.47;;;;;;;25.14;49.36;97691.88;5066658;28;20208;-71
2022/08/30 07:49:03;;;;;;;8.90;6.47;;;;;;;25.19;49.50;97693.06;5065613;28;20202;-71
2022/08/30 07:51:29;;;;;;;10.60;7.30;;;;;;;25.20;49.05;97695.53;5057039;28;20409;-71
2022/08/30 07:53:55;;;;;;;19.27;6.70;;;;;;;25.41;48.72;97690.63;5065530;28;20946;-70
2022/08/30 07:56:21;;;;;;;9.83;7.30;;;;;;;25.54;48.14;97690.34;5072673;28;20658;-71
2022/08/30 07:58:47;;;;;;;12.60;6.57;;;;;;;25.63;48.08;97698.03;5073435;28;20205;-69
2022/08/30 08:01:13;;;;;;;10.80;8.53;;;;;;;25.71;47.78;97697.63;5073210;28;20959;-70
2022/08/30 08:03:40;;;;;;;9.87;6.80;;;;;;;25.91;47.66;97689.16;5065064;28;20193;-72
2022/08/30 08:06:08;;;;;;;7.67;6.73;;;;;;;26.14;47.49;97696.31;5057503;28;20461;-70
2022/08/30 08:08:34;;;;;;;8.63;6.97;;;;;;;26.38;46.93;97701.56;5072633;28;20812;-70
2022/08/30 08:11:12;;;;;;;10.47;6.57;;;;;;;26.56;46.44;97697.84;5073158;28;20482;-71
2022/08/30 08:13:38;;;;;;;9.33;6.40;;;;;;;26.84;46.13;97701.53;5073349;28;20561;-71
2022/08/30 08:16:04;;;;;;;9.07;6.30;;;;;;;27.03;45.34;97704.75;5064772;28;20444;-71
2022/08/30 08:18:30;;;;;;;7.63;6.47;;;;;;;27.18;45.22;97706.84;5064284;28;20528;-71
2022/08/30 08:20:56;;;;;;;6.20;5.60;;;;;;;27.38;44.79;97700.91;5065780;28;20231;-71
2022/08/30 08:23:22;;;;;;;12.53;6.40;;;;;;;27.63;44.34;97702.31;5071927;28;20453;-71
2022/08/30 08:25:47;;;;;;;16.73;6.70;;;;;;;27.92;43.62;97699.44;5058928;28;20606;-71
2022/08/30 08:28:13;;;;;;;13.77;6.23;;;;;;;28.19;42.99;97695.97;5069996;28;20738;-71
2022/08/30 08:30:39;;;;;;;6.33;5.37;;;;;;;28.46;42.52;97703.19;5072969;28;20189;-71
2022/08/30 08:33:05;;;;;;;8.70;5.67;;;;;;;28.74;42.28;97698.56;5072243;28;20187;-70
2022/08/30 08:35:31;;;;;;;9.70;6.00;;;;;;;29.01;41.67;97697.69;5065946;28;20189;-71
2022/08/30 08:37:56;;;;;;;9.67;5.70;;;;;;;29.15;40.48;97692.66;5059472;28;20560;-71
2022/08/30 08:40:22;;;;;;;10.60;5.63;;;;;;;29.42;40.23;97687.94;5058544;28;20199;-71
2022/08/30 08:42:56;;;;;;;5.60;5.00;;;;;;;29.69;39.84;97680.75;5071564;28;20174;-70
2022/08/30 08:45:31;;;;;;;8.87;5.07;;;;;;;29.89;38.94;97683.50;5062456;28;20650;-71
2022/08/30 08:48:03;;;;;;;5.90;5.13;;;;;;;30.06;38.48;97679.78;5067006;28;20860;-72
2022/08/30 08:50:29;;;;;;;5.53;4.93;;;;;;;30.32;39.28;97682.53;5071651;28;20516;-70
2022/08/30 08:53:35;;;;;;;5.87;5.13;;;;;;;30.56;38.52;97676.59;5064278;28;20508;-70
2022/08/30 08:56:11;;;;;;;5.90;5.07;;;;;;;30.76;38.04;97687.38;5059321;28;20186;-71
2022/08/30 08:58:45;;;;;;;9.97;5.87;;;;;;;30.97;37.36;97681.97;5071514;28;20511;-70
2022/08/30 09:01:14;;;;;;;5.17;4.63;;;;;;;31.14;36.49;97683.56;5070999;28;20479;-70
2022/08/30 09:03:39;;;;;;;9.03;5.53;;;;;;;31.20;35.16;97682.47;5072231;28;20431;-70
2022/08/30 09:06:21;;;;;;;6.90;5.50;;;;;;;31.25;35.29;97682.47;5056503;28;20426;-69
2022/08/30 09:08:47;;;;;;;7.77;5.17;;;;;;;31.39;35.52;97683.47;5054268;28;20278;-70
2022/08/30 09:11:20;;;;;;;7.40;5.00;;;;;;;31.64;35.12;97679.03;5070628;28;20425;-69
2022/08/30 09:13:45;;;;;;;8.30;5.20;;;;;;;31.81;34.32;97673.28;5071131;28;20912;-70
2022/08/30 09:16:49;;;;;;;6.27;5.13;;;;;;;31.97;34.24;97663.16;5063627;28;20509;-70
2022/08/30 09:19:45;;;;;;;14.10;5.40;;;;;;;32.16;33.77;97668.72;5063476;28;20213;-70
2022/08/30 09:22:41;;;;;;;5.30;4.77;;;;;;;32.32;33.51;97664.03;5056608;28;20552;-70
2022/08/30 09:25:12;;;;;;;6.73;4.40;;;;;;;32.45;33.11;97659.03;5062123;28;20425;-70
2022/08/30 09:27:40;;;;;;;10.70;5.50;;;;;;;32.48;33.11;97663.91;5070765;28;20494;-70
2022/08/30 09:30:09;;;;;;;8.87;4.60;;;;;;;32.64;32.93;97651.00;5071116;28;20456;-71
2022/08/30 09:32:54;;;;;;;6.40;4.70;;;;;;;32.72;32.64;97652.28;5071465;28;20451;-70
2022/08/30 09:35:48;;;;;;;7.43;4.63;;;;;;;32.82;32.32;97652.19;5068105;28;20443;-70
2022/08/30 09:38:25;;;;;;;5.50;4.77;;;;;;;32.88;32.18;97653.78;5061575;28;20470;-71
2022/08/30 09:40:53;;;;;;;6.83;4.43;;;;;;;33.07;31.96;97653.03;5070481;28;20460;-72
2022/08/30 09:43:23;;;;;;;10.23;4.73;;;;;;;33.16;31.77;97643.13;5068201;28;20431;-71
2022/08/30 09:46:08;;;;;;;10.80;5.20;;;;;;;33.23;32.08;97646.31;5057227;28;20443;-69
2022/08/30 09:48:39;;;;;;;5.30;4.30;;;;;;;33.12;31.67;97639.41;5062331;28;20435;-71
2022/08/30 09:51:10;;;;;;;6.37;4.87;;;;;;;33.19;31.87;97637.13;5071453;28;20417;-72
2022/08/30 09:54:09;;;;;;;7.20;4.80;;;;;;;33.15;31.72;97636.09;5055678;28;20859;-71
2022/08/30 09:57:05;;;;;;;8.07;4.40;;;;;;;33.29;31.82;97638.91;5069760;28;21212;-72
2022/08/30 09:59:54;;;;;;;6.07;4.83;;;;;;;33.15;30.73;97638.81;5070326;28;20401;-70
2022/08/30 10:02:56;;;;;;;5.90;3.80;;;;;;;33.21;30.06;97631.41;5052567;28;20478;-71
2022/08/30 10:05:51;;;;;;;5.53;4.03;;;;;;;33.42;30.43;97634.69;5066824;28;20891;-71
2022/08/30 10:08:37;;;;;;;4.20;3.80;;;;;;;33.59;30.08;97625.25;5068603;28;20444;-70
2022/08/30 10:11:09;;;;;;;7.60;4.53;;;;;;;33.73;29.35;97628.84;5062034;28;20422;-70
2022/08/30 10:13:40;;;;;;;4.07;3.77;;;;;;;33.97;29.94;97631.50;5063475;28;20409;-70
2022/08/30 10:16:14;;;;;;;4.53;4.13;;;;;;;34.10;29.93;97620.97;5070979;28;21015;-70
2022/08/30 10:19:14;;;;;;;3.53;3.23;;;;;;;34.23;28.99;97616.72;5069471;28;20441;-70
2022/08/30 10:21:48;;;;;;;4.10;3.70;;;;;;;34.38;28.46;97618.34;5062829;28;20440;-71
2022/08/30 10:24:17;;;;;;;4.50;4.10;;;;;;;34.47;28.40;97615.78;5069671;28;20420;-70
2022/08/30 10:26:52;;;;;;;4.20;3.80;;;;;;;34.68;27.92;97610.78;5069457;28;20496;-70
2022/08/30 10:29:35;;;;;;;4.33;3.83;;;;;;;34.69;27.90;97607.75;5071503;28;20805;-72
2022/08/30 10:32:10;;;;;;;4.60;3.67;;;;;;;34.80;27.71;97599.38;5071150;28;20761;-70
2022/08/30 10:34:40;;;;;;;6.97;4.63;;;;;;;34.77;27.67;97598.09;5069602;28;20423;-71
2022/08/30 10:37:12;;;;;;;7.10;4.17;;;;;;;34.62;27.44;97596.47;5054293;28;20467;-71
2022/08/30 10:39:42;;;;;;;5.70;4.07;;;;;;;34.79;27.27;97595.06;5060673;28;20445;-71
2022/08/30 10:42:12;;;;;;;5.27;4.13;;;;;;;34.89;27.23;97603.03;5066570;28;20456;-71
2022/08/30 10:44:43;;;;;;;6.40;3.87;;;;;;;34.82;27.38;97592.56;5066100;28;20416;-70
2022/08/30 10:47:16;;;;;;;4.40;3.80;;;;;;;35.04;27.59;97593.78;5063426;28;20939;-71
2022/08/30 10:49:44;;;;;;;5.57;4.13;;;;;;;35.08;27.23;97594.78;5071094;28;20932;-70
2022/08/30 10:52:16;;;;;;;5.67;3.63;;;;;;;35.13;26.84;97594.66;5070689;28;20431;-70
2022/08/30 10:54:52;;;;;;;7.00;3.87;;;;;;;35.27;26.72;97585.69;5070757;28;20429;-70
2022/08/30 10:57:18;;;;;;;4.00;3.50;;;;;;;35.29;26.75;97594.34;5069489;28;20954;-70
2022/08/30 11:00:29;;;;;;;4.57;3.67;;;;;;;35.62;26.25;97577.84;5074411;28;20474;-71
2022/08/30 11:03:09;;;;;;;8.07;3.80;;;;;;;35.71;25.43;97583.38;5042600;28;20190;-69
2022/08/30 11:05:46;;;;;;;4.53;3.27;;;;;;;35.85;24.77;97581.41;5052024;28;20443;-70
2022/08/30 11:08:27;;;;;;;7.13;3.40;;;;;;;35.80;24.20;97579.59;5070161;28;20590;-70
2022/08/30 11:11:31;;;;;;;3.63;3.30;;;;;;;35.89;24.86;97576.94;5073373;28;20424;-69
2022/08/30 11:14:00;;;;;;;12.53;4.10;;;;;;;35.88;25.04;97583.53;5041344;28;20427;-70
2022/08/30 11:16:53;;;;;;;6.40;3.60;;;;;;;35.88;24.92;97585.41;5073433;28;20428;-69
2022/08/30 11:19:37;;;;;;;5.53;4.10;;;;;;;36.02;25.40;97582.69;5070846;28;20456;-71
2022/08/30 11:22:13;;;;;;;7.43;3.90;;;;;;;35.93;25.71;97583.41;5066118;28;20452;-71
2022/08/30 11:25:01;;;;;;;5.60;4.07;;;;;;;35.75;25.75;97576.19;5072585;28;20710;-71
2022/08/30 11:27:45;;;;;;;5.07;4.00;;;;;;;35.70;25.88;97574.41;5073169;28;20512;-70
2022/08/30 11:30:25;;;;;;;8.63;3.50;;;;;;;35.53;25.67;97580.53;5074007;28;20446;-71
2022/08/30 11:33:09;;;;;;;3.73;3.30;;;;;;;35.56;25.85;97577.16;5073965;28;20412;-69
2022/08/30 11:35:49;;;;;;;3.93;3.53;;;;;;;35.33;25.77;97579.03;5066758;28;20517;-70
2022/08/30 11:38:24;;;;;;;8.13;3.70;;;;;;;35.04;25.99;97578.25;5064479;28;20989;-72
2022/08/30 11:40:56;;;;;;;3.63;3.43;;;;;;;34.70;27.23;97584.09;5073783;28;20451;-70
2022/08/30 11:43:34;;;;;;;9.70;3.57;;;;;;;34.44;27.19;97585.34;5071937;28;20413;-72
2022/08/30 11:46:24;;;;;;;3.30;3.10;;;;;;;34.24;26.79;97585.69;5055085;28;20427;-70
2022/08/30 11:49:14;;;;;;;4.27;3.90;;;;;;;33.95;27.58;97587.53;5061809;28;20953;-70